createdAt,value
2017-07-24T06:04:55.721Z,75
2017-07-24T06:05:41.408Z,65
2017-07-24T06:06:41.409Z,65
2017-07-24T06:07:41.095Z,65
2017-07-24T06:08:41.089Z,65
2017-07-24T06:09:41.059Z,65
2017-07-24T06:10:41.055Z,70
2017-07-24T06:11:41.364Z,70
2017-07-24T06:12:41.041Z,65
2017-07-24T06:13:41.337Z,65
2017-07-24T06:14:41.321Z,60
2017-07-24T06:15:40.731Z,60
2017-07-24T06:16:41.308Z,65
2017-07-24T06:17:41.003Z,70
2017-07-24T06:18:41.291Z,75
2017-07-24T06:19:41.279Z,80
2017-07-24T06:20:41.274Z,85
2017-07-24T06:21:41.260Z,85
2017-07-24T06:22:41.246Z,85
2017-07-24T06:23:41.249Z,85
2017-07-24T06:24:41.214Z,80
2017-07-24T06:25:41.217Z,75
2017-07-24T06:26:41.199Z,70
2017-07-24T06:27:41.193Z,65
2017-07-24T06:28:41.180Z,65
2017-07-24T06:29:41.163Z,60
2017-07-24T06:30:41.160Z,55
2017-07-24T06:31:41.132Z,55
2017-07-24T06:32:41.135Z,55
2017-07-24T06:33:41.118Z,60
2017-07-24T06:34:40.813Z,65
2017-07-24T06:35:41.113Z,75
2017-07-24T06:36:41.091Z,80
2017-07-24T06:37:41.084Z,75
2017-07-24T06:38:41.074Z,75
2017-07-24T06:39:41.042Z,75
2017-07-24T06:40:40.745Z,70
2017-07-24T06:41:41.036Z,80
2017-07-24T06:42:40.729Z,80
2017-07-24T06:43:41.040Z,70
2017-07-24T06:44:41.009Z,60
2017-07-24T06:45:41.006Z,60
2017-07-24T06:46:41.006Z,65
2017-07-24T06:47:40.674Z,75
2017-07-24T06:48:40.975Z,85
2017-07-24T06:49:40.967Z,85
2017-07-24T06:50:40.946Z,90
2017-07-24T06:51:40.933Z,95
2017-07-24T06:52:40.934Z,95
2017-07-24T06:53:40.931Z,110
2017-07-24T06:54:40.899Z,130
2017-07-24T06:55:40.913Z,150
2017-07-24T06:56:40.888Z,150
2017-07-24T06:57:40.866Z,150
2017-07-24T06:58:40.871Z,145
2017-07-24T06:59:40.538Z,130
2017-07-24T07:00:40.822Z,125
2017-07-24T07:01:40.526Z,130
2017-07-24T07:02:40.825Z,135
2017-07-24T07:03:40.802Z,140
2017-07-24T07:04:40.791Z,145
2017-07-24T07:05:40.474Z,145
2017-07-24T07:06:40.772Z,145
2017-07-24T07:07:40.758Z,135
2017-07-24T07:08:40.751Z,130
2017-07-24T07:09:40.750Z,140
2017-07-24T07:10:40.729Z,170
2017-07-24T07:11:40.730Z,220
2017-07-24T07:12:40.400Z,240
2017-07-24T07:13:39.482Z,255
2017-07-24T07:14:40.679Z,270
2017-07-24T07:15:40.660Z,250
2017-07-24T07:16:40.356Z,230
2017-07-24T07:17:40.647Z,235
2017-07-24T07:18:40.035Z,240
2017-07-24T07:19:40.323Z,255
2017-07-24T07:20:40.613Z,255
2017-07-24T07:21:39.993Z,265
2017-07-24T07:22:40.594Z,270
2017-07-24T07:23:40.260Z,280
2017-07-24T07:24:40.577Z,285
2017-07-24T07:25:40.542Z,285
2017-07-24T07:26:40.532Z,290
2017-07-24T07:27:40.228Z,310
2017-07-24T07:28:40.518Z,315
2017-07-24T07:29:40.504Z,325
2017-07-24T07:30:40.493Z,300
2017-07-24T07:31:40.494Z,275
2017-07-24T07:32:40.479Z,255
2017-07-24T07:33:40.170Z,230
2017-07-24T07:34:40.147Z,220
2017-07-24T07:35:40.447Z,220
2017-07-24T07:36:40.427Z,215
2017-07-24T07:37:40.106Z,205
2017-07-24T07:38:40.413Z,190
2017-07-24T07:39:40.408Z,190
2017-07-24T07:40:40.388Z,195
2017-07-24T07:41:40.074Z,200
2017-07-24T07:42:40.071Z,205
2017-07-24T07:43:40.347Z,200
2017-07-24T07:44:40.334Z,195
2017-07-24T07:45:40.023Z,195
2017-07-24T07:46:40.019Z,195
2017-07-24T07:47:40.304Z,190
2017-07-24T07:48:39.997Z,195
2017-07-24T07:49:39.992Z,195
2017-07-24T07:50:40.267Z,195
2017-07-24T07:51:40.271Z,205
2017-07-24T07:52:40.248Z,210
2017-07-24T07:53:40.236Z,225
2017-07-24T07:54:40.227Z,240
2017-07-24T07:55:39.915Z,260
2017-07-24T07:56:40.228Z,315
2017-07-24T07:57:40.196Z,300
2017-07-24T07:58:40.202Z,310
2017-07-24T07:59:39.581Z,310
2017-07-24T08:00:40.161Z,320
2017-07-24T08:01:40.158Z,305
2017-07-24T08:02:40.141Z,305
2017-07-24T08:03:39.823Z,285
2017-07-24T08:04:39.818Z,300
2017-07-24T08:05:39.825Z,255
2017-07-24T08:06:39.795Z,270
2017-07-24T08:07:39.781Z,250
2017-07-24T08:08:39.777Z,235
2017-07-24T08:09:40.067Z,250
2017-07-24T08:10:40.037Z,240
2017-07-24T08:11:40.038Z,255
2017-07-24T08:12:40.037Z,255
2017-07-24T08:13:39.703Z,310
2017-07-24T08:14:39.983Z,315
2017-07-24T08:15:39.383Z,295
2017-07-24T08:16:39.358Z,315
2017-07-24T08:17:39.643Z,360
2017-07-24T08:18:39.646Z,300
2017-07-24T08:19:39.617Z,325
2017-07-24T08:20:39.600Z,340
2017-07-24T08:21:39.597Z,395
2017-07-24T08:22:39.583Z,420
2017-07-24T08:23:39.590Z,445
2017-07-24T08:24:39.576Z,495
2017-07-24T08:25:39.528Z,425
2017-07-24T08:26:39.503Z,370
2017-07-24T08:27:39.506Z,325
2017-07-24T08:28:39.494Z,335
2017-07-24T08:29:39.793Z,320
2017-07-24T08:30:39.466Z,300
2017-07-24T08:31:39.769Z,315
2017-07-24T08:32:39.742Z,325
2017-07-24T08:33:39.414Z,325
2017-07-24T08:34:39.400Z,345
2017-07-24T08:35:39.391Z,360
2017-07-24T08:36:39.373Z,305
2017-07-24T08:37:39.677Z,250
2017-07-24T08:38:39.344Z,250
2017-07-24T08:39:39.630Z,270
2017-07-24T08:40:39.636Z,265
2017-07-24T08:41:39.302Z,265
2017-07-24T08:42:39.604Z,265
2017-07-24T08:43:38.979Z,330
2017-07-24T08:44:39.591Z,365
2017-07-24T08:45:39.242Z,395
2017-07-24T08:46:39.238Z,465
2017-07-24T08:47:39.531Z,535
2017-07-24T08:48:39.203Z,625
2017-07-24T08:49:39.493Z,595
2017-07-24T08:50:39.481Z,515
2017-07-24T08:51:39.466Z,420
2017-07-24T08:52:39.461Z,440
2017-07-24T08:53:38.832Z,445
2017-07-24T08:54:39.128Z,405
2017-07-24T08:55:39.103Z,380
2017-07-24T08:56:39.399Z,380
2017-07-24T08:57:39.381Z,395
2017-07-24T08:58:39.065Z,405
2017-07-24T08:59:39.361Z,425
2017-07-24T09:00:39.035Z,405
2017-07-24T09:01:39.327Z,355
2017-07-24T09:02:39.329Z,330
2017-07-24T09:03:38.685Z,350
2017-07-24T09:04:38.987Z,295
2017-07-24T09:05:39.266Z,275
2017-07-24T09:06:38.947Z,275
2017-07-24T09:07:38.940Z,255
2017-07-24T09:08:38.930Z,260
2017-07-24T09:09:38.909Z,280
2017-07-24T09:10:39.194Z,260
2017-07-24T09:11:39.168Z,290
2017-07-24T09:12:38.850Z,245
2017-07-24T09:13:39.158Z,255
2017-07-24T09:14:38.834Z,240
2017-07-24T09:15:38.812Z,255
2017-07-24T09:16:39.104Z,245
2017-07-24T09:17:38.773Z,245
2017-07-24T09:18:38.466Z,225
2017-07-24T09:19:39.059Z,215
2017-07-24T09:20:38.736Z,240
2017-07-24T09:21:38.713Z,250
2017-07-24T09:22:38.403Z,255
2017-07-24T09:23:38.396Z,285
2017-07-24T09:24:38.364Z,290
2017-07-24T09:25:38.979Z,290
2017-07-24T09:26:38.360Z,285
2017-07-24T09:27:38.947Z,320
2017-07-24T09:28:38.917Z,315
2017-07-24T09:29:38.901Z,295
2017-07-24T09:30:38.588Z,275
2017-07-24T09:31:38.588Z,260
2017-07-24T09:32:38.571Z,265
2017-07-24T09:33:38.538Z,320
2017-07-24T09:34:37.926Z,325
2017-07-24T09:35:38.818Z,325
2017-07-24T09:36:38.812Z,345
2017-07-24T09:37:38.775Z,355
2017-07-24T09:38:38.462Z,355
2017-07-24T09:39:38.764Z,440
2017-07-24T09:40:38.427Z,505
2017-07-24T09:41:38.149Z,425
2017-07-24T09:42:38.719Z,435
2017-07-24T09:43:38.388Z,400
2017-07-24T09:44:38.686Z,330
2017-07-24T09:45:38.677Z,275
2017-07-24T09:46:38.656Z,270
2017-07-24T09:47:38.330Z,260
2017-07-24T09:48:38.625Z,240
2017-07-24T09:49:38.617Z,220
2017-07-24T09:50:38.590Z,220
2017-07-24T09:51:37.981Z,215
2017-07-24T09:52:38.580Z,220
2017-07-24T09:53:38.248Z,235
2017-07-24T09:54:38.254Z,245
2017-07-24T09:55:37.915Z,230
2017-07-24T09:56:38.198Z,250
2017-07-24T09:57:38.188Z,250
2017-07-24T09:58:38.175Z,250
2017-07-24T09:59:38.452Z,275
2017-07-24T10:00:38.140Z,305
2017-07-24T10:01:38.446Z,375
2017-07-24T10:02:38.115Z,440
2017-07-24T10:03:38.109Z,480
2017-07-24T10:04:38.078Z,480
2017-07-24T10:05:38.393Z,505
2017-07-24T10:06:38.360Z,530
2017-07-24T10:07:38.049Z,515
2017-07-24T10:08:38.341Z,520
2017-07-24T10:09:38.016Z,545
2017-07-24T10:10:37.095Z,520
2017-07-24T10:11:38.293Z,530
2017-07-24T10:12:38.288Z,540
2017-07-24T10:13:37.960Z,520
2017-07-24T10:14:37.958Z,480
2017-07-24T10:15:37.935Z,430
2017-07-24T10:16:37.605Z,410
2017-07-24T10:17:37.592Z,380
2017-07-24T10:18:37.897Z,415
2017-07-24T10:19:38.191Z,395
2017-07-24T10:20:37.850Z,390
2017-07-24T10:21:37.837Z,400
2017-07-24T10:22:37.835Z,410
2017-07-24T10:23:37.821Z,395
2017-07-24T10:24:37.804Z,345
2017-07-24T10:25:37.789Z,350
2017-07-24T10:26:37.481Z,345
2017-07-24T10:27:38.079Z,340
2017-07-24T10:28:37.451Z,320
2017-07-24T10:29:37.719Z,295
2017-07-24T10:30:37.727Z,345
2017-07-24T10:31:37.698Z,345
2017-07-24T10:32:37.690Z,395
2017-07-24T10:33:37.669Z,380
2017-07-24T10:34:37.685Z,350
2017-07-24T10:35:37.950Z,370
2017-07-24T10:36:37.633Z,430
2017-07-24T10:37:37.308Z,450
2017-07-24T10:38:37.900Z,510
2017-07-24T10:39:37.896Z,530
2017-07-24T10:40:37.882Z,515
2017-07-24T10:41:37.859Z,560
2017-07-24T10:42:37.870Z,555
2017-07-24T10:43:37.531Z,555
2017-07-24T10:44:37.828Z,605
2017-07-24T10:45:37.811Z,585
2017-07-24T10:46:37.795Z,610
2017-07-24T10:47:37.787Z,560
2017-07-24T10:48:37.786Z,555
2017-07-24T10:49:37.770Z,540
2017-07-24T10:50:37.758Z,525
2017-07-24T10:51:37.729Z,550
2017-07-24T10:52:37.717Z,505
2017-07-24T10:53:37.714Z,485
2017-07-24T10:54:37.381Z,465
2017-07-24T10:55:37.659Z,465
2017-07-24T10:56:37.686Z,425
2017-07-24T10:57:37.350Z,435
2017-07-24T10:58:37.318Z,450
2017-07-24T10:59:37.310Z,460
2017-07-24T11:00:37.614Z,425
2017-07-24T11:01:37.573Z,390
2017-07-24T11:02:37.578Z,425
2017-07-24T11:03:37.578Z,405
2017-07-24T11:04:37.594Z,425
2017-07-24T11:05:37.545Z,420
2017-07-24T11:06:37.510Z,420
2017-07-24T11:07:37.526Z,410
2017-07-24T11:08:37.475Z,365
2017-07-24T11:09:37.492Z,410
2017-07-24T11:10:37.172Z,420
2017-07-24T11:11:37.461Z,415
2017-07-24T11:12:37.445Z,400
2017-07-24T11:13:37.433Z,380
2017-07-24T11:14:37.106Z,395
2017-07-24T11:15:37.405Z,390
2017-07-24T11:16:37.384Z,360
2017-07-24T11:17:37.392Z,390
2017-07-24T11:18:37.356Z,385
2017-07-24T11:19:37.344Z,415
2017-07-24T11:20:37.319Z,435
2017-07-24T11:21:37.324Z,425
2017-07-24T11:22:37.318Z,435
2017-07-24T11:23:37.284Z,465
2017-07-24T11:24:36.983Z,455
2017-07-24T11:25:37.264Z,410
2017-07-24T11:26:37.250Z,420
2017-07-24T11:27:37.247Z,400
2017-07-24T11:28:37.228Z,375
2017-07-24T11:29:36.602Z,350
2017-07-24T11:30:37.201Z,310
2017-07-24T11:31:37.181Z,310
2017-07-24T11:32:37.169Z,320
2017-07-24T11:33:36.844Z,315
2017-07-24T11:34:37.153Z,295
2017-07-24T11:35:36.818Z,295
2017-07-24T11:36:36.810Z,290
2017-07-24T11:37:36.797Z,320
2017-07-24T11:38:37.088Z,355
2017-07-24T11:39:36.773Z,455
2017-07-24T11:40:36.755Z,480
2017-07-24T11:41:36.740Z,490
2017-07-24T11:42:37.032Z,485
2017-07-24T11:43:36.719Z,435
2017-07-24T11:44:37.010Z,430
2017-07-24T11:45:37.013Z,400
2017-07-24T11:46:36.376Z,335
2017-07-24T11:47:36.959Z,320
2017-07-24T11:48:36.957Z,335
2017-07-24T11:49:36.937Z,375
2017-07-24T11:50:36.919Z,350
2017-07-24T11:51:36.613Z,360
2017-07-24T11:52:36.895Z,355
2017-07-24T11:53:36.878Z,375
2017-07-24T11:54:36.889Z,345
2017-07-24T11:55:36.860Z,315
2017-07-24T11:56:36.840Z,325
2017-07-24T11:57:36.842Z,360
2017-07-24T11:58:36.815Z,380
2017-07-24T11:59:36.787Z,370
2017-07-24T12:00:36.793Z,315
2017-07-24T12:01:36.770Z,310
2017-07-24T12:02:36.758Z,330
2017-07-24T12:03:36.741Z,365
2017-07-24T12:04:36.439Z,390
2017-07-24T12:05:36.723Z,405
2017-07-24T12:06:36.711Z,395
2017-07-24T12:07:36.395Z,400
2017-07-24T12:08:36.679Z,415
2017-07-24T12:09:36.653Z,415
2017-07-24T12:10:36.655Z,410
2017-07-24T12:11:36.655Z,420
2017-07-24T12:12:36.630Z,490
2017-07-24T12:13:36.609Z,475
2017-07-24T12:14:36.593Z,470
2017-07-24T12:15:36.587Z,485
2017-07-24T12:16:36.275Z,500
2017-07-24T12:17:36.562Z,490
2017-07-24T12:18:36.551Z,500
2017-07-24T12:19:36.243Z,500
2017-07-24T12:20:36.510Z,505
2017-07-24T12:21:35.605Z,525
2017-07-24T12:22:36.514Z,530
2017-07-24T12:23:36.491Z,545
2017-07-24T12:24:36.173Z,535
2017-07-24T12:25:36.162Z,600
2017-07-24T12:26:36.141Z,570
2017-07-24T12:27:35.814Z,485
2017-07-24T12:28:36.416Z,445
2017-07-24T12:29:36.413Z,390
2017-07-24T12:30:36.389Z,395
2017-07-24T12:31:36.371Z,440
2017-07-24T12:32:36.370Z,550
2017-07-24T12:33:36.344Z,485
2017-07-24T12:34:36.364Z,395
2017-07-24T12:35:36.026Z,360
2017-07-24T12:36:36.001Z,400
2017-07-24T12:37:36.306Z,420
2017-07-24T12:38:35.978Z,515
2017-07-24T12:39:35.672Z,590
2017-07-24T12:40:36.266Z,600
2017-07-24T12:41:36.238Z,485
2017-07-24T12:42:36.220Z,485
2017-07-24T12:43:36.205Z,390
2017-07-24T12:44:35.899Z,365
2017-07-24T12:45:36.180Z,360
2017-07-24T12:46:36.183Z,365
2017-07-24T12:47:36.163Z,375
2017-07-24T12:48:36.140Z,360
2017-07-24T12:49:36.122Z,340
2017-07-24T12:50:35.804Z,310
2017-07-24T12:51:36.104Z,300
2017-07-24T12:52:35.487Z,295
2017-07-24T12:53:35.780Z,275
2017-07-24T12:54:35.751Z,265
2017-07-24T12:55:35.439Z,230
2017-07-24T12:56:36.043Z,235
2017-07-24T12:57:36.031Z,210
2017-07-24T12:58:35.731Z,205
2017-07-24T12:59:35.688Z,215
2017-07-24T13:00:35.674Z,220
2017-07-24T13:01:35.989Z,215
2017-07-24T13:02:35.942Z,235
2017-07-24T13:03:35.936Z,225
2017-07-24T13:04:35.609Z,185
2017-07-24T13:05:35.913Z,185
2017-07-24T13:06:35.597Z,190
2017-07-24T13:07:35.880Z,180
2017-07-24T13:08:35.870Z,190
2017-07-24T13:09:35.864Z,210
2017-07-24T13:10:35.825Z,215
2017-07-24T13:11:35.817Z,235
2017-07-24T13:12:35.806Z,245
2017-07-24T13:13:35.480Z,260
2017-07-24T13:14:35.772Z,245
2017-07-24T13:15:35.755Z,230
2017-07-24T13:16:35.749Z,210
2017-07-24T13:17:35.740Z,230
2017-07-24T13:18:35.422Z,270
2017-07-24T13:19:35.694Z,275
2017-07-24T13:20:35.697Z,255
2017-07-24T13:21:35.071Z,270
2017-07-24T13:22:35.556Z,250
2017-07-24T13:23:35.350Z,245
2017-07-24T13:24:35.322Z,250
2017-07-24T13:25:35.611Z,235
2017-07-24T13:26:35.615Z,250
2017-07-24T13:27:35.577Z,280
2017-07-24T13:28:35.283Z,240
2017-07-24T13:29:35.560Z,230
2017-07-24T13:30:34.925Z,235
2017-07-24T13:31:35.519Z,270
2017-07-24T13:32:35.525Z,245
2017-07-24T13:33:35.495Z,245
2017-07-24T13:34:35.495Z,275
2017-07-24T13:35:35.179Z,280
2017-07-24T13:36:35.439Z,240
2017-07-24T13:37:35.436Z,245
2017-07-24T13:38:35.423Z,250
2017-07-24T13:39:35.418Z,260
2017-07-24T13:40:35.388Z,285
2017-07-24T13:41:35.374Z,300
2017-07-24T13:42:35.357Z,325
2017-07-24T13:43:35.345Z,320
2017-07-24T13:44:35.034Z,375
2017-07-24T13:45:35.012Z,380
2017-07-24T13:46:34.998Z,325
2017-07-24T13:47:35.298Z,305
2017-07-24T13:48:35.289Z,275
2017-07-24T13:49:35.270Z,320
2017-07-24T13:50:34.942Z,330
2017-07-24T13:51:35.236Z,340
2017-07-24T13:52:35.216Z,335
2017-07-24T13:53:34.902Z,330
2017-07-24T13:54:35.186Z,315
2017-07-24T13:55:34.888Z,345
2017-07-24T13:56:35.187Z,315
2017-07-24T13:57:35.145Z,335
2017-07-24T13:58:35.131Z,340
2017-07-24T13:59:35.125Z,320
2017-07-24T14:00:35.112Z,310
2017-07-24T14:01:34.779Z,340
2017-07-24T14:02:35.064Z,345
2017-07-24T14:03:34.750Z,330
2017-07-24T14:04:34.766Z,320
2017-07-24T14:05:34.432Z,325
2017-07-24T14:06:35.025Z,320
2017-07-24T14:07:34.990Z,335
2017-07-24T14:08:34.976Z,435
2017-07-24T14:09:34.679Z,420
2017-07-24T14:10:34.943Z,340
2017-07-24T14:11:34.948Z,280
2017-07-24T14:12:34.932Z,265
2017-07-24T14:13:34.314Z,390
2017-07-24T14:14:34.293Z,480
2017-07-24T14:15:34.880Z,390
2017-07-24T14:16:34.865Z,420
2017-07-24T14:17:34.849Z,350
2017-07-24T14:18:34.852Z,260
2017-07-24T14:19:34.837Z,245
2017-07-24T14:20:34.805Z,380
2017-07-24T14:21:34.803Z,440
2017-07-24T14:22:34.779Z,425
2017-07-24T14:23:34.766Z,425
2017-07-24T14:24:34.752Z,375
2017-07-24T14:25:34.736Z,345
2017-07-24T14:26:34.726Z,305
2017-07-24T14:27:34.705Z,325
2017-07-24T14:28:34.691Z,380
2017-07-24T14:29:34.686Z,395
2017-07-24T14:30:34.670Z,335
2017-07-24T14:31:34.047Z,380
2017-07-24T14:32:34.636Z,300
2017-07-24T14:33:34.610Z,275
2017-07-24T14:34:34.284Z,265
2017-07-24T14:35:34.594Z,255
2017-07-24T14:36:34.569Z,330
2017-07-24T14:37:34.265Z,270
2017-07-24T14:38:34.546Z,280
2017-07-24T14:39:34.536Z,295
2017-07-24T14:40:34.517Z,265
2017-07-24T14:41:34.517Z,300
2017-07-24T14:42:34.496Z,255
2017-07-24T14:43:34.463Z,250
2017-07-24T14:44:34.454Z,285
2017-07-24T14:45:34.446Z,265
2017-07-24T14:46:33.807Z,255
2017-07-24T14:47:34.424Z,245
2017-07-24T14:48:34.391Z,260
2017-07-24T14:49:33.761Z,285
2017-07-24T14:50:34.370Z,260
2017-07-24T14:51:34.347Z,255
2017-07-24T14:52:34.029Z,305
2017-07-24T14:53:34.342Z,355
2017-07-24T14:54:34.311Z,395
2017-07-24T14:55:33.677Z,510
2017-07-24T14:56:33.978Z,435
2017-07-24T14:57:33.656Z,390
2017-07-24T14:58:34.233Z,400
2017-07-24T14:59:33.925Z,385
2017-07-24T15:00:34.218Z,340
2017-07-24T15:01:34.184Z,345
2017-07-24T15:02:34.167Z,355
2017-07-24T15:03:33.856Z,390
2017-07-24T15:04:34.147Z,390
2017-07-24T15:05:34.119Z,395
2017-07-24T15:06:33.811Z,425
2017-07-24T15:07:33.800Z,340
2017-07-24T15:08:33.783Z,535
2017-07-24T15:09:33.761Z,430
2017-07-24T15:10:34.058Z,420
2017-07-24T15:11:33.725Z,370
2017-07-24T15:12:33.730Z,460
2017-07-24T15:13:33.700Z,515
2017-07-24T15:14:33.689Z,550
2017-07-24T15:15:33.666Z,480
2017-07-24T15:16:33.958Z,480
2017-07-24T15:17:33.940Z,410
2017-07-24T15:18:33.927Z,370
2017-07-24T15:19:33.911Z,325
2017-07-24T15:20:33.913Z,295
2017-07-24T15:21:33.590Z,310
2017-07-24T15:22:33.854Z,335
2017-07-24T15:23:33.844Z,285
2017-07-24T15:24:33.824Z,270
2017-07-24T15:25:33.803Z,260
2017-07-24T15:26:33.492Z,260
2017-07-24T15:27:33.781Z,305
2017-07-24T15:28:33.774Z,285
2017-07-24T15:29:33.767Z,360
2017-07-24T15:30:33.752Z,415
2017-07-24T15:31:33.728Z,350
2017-07-24T15:32:33.113Z,285
2017-07-24T15:33:33.378Z,295
2017-07-24T15:34:33.672Z,280
2017-07-24T15:35:33.651Z,305
2017-07-24T15:36:33.629Z,375
2017-07-24T15:37:33.627Z,360
2017-07-24T15:38:33.591Z,445
2017-07-24T15:39:33.594Z,480
2017-07-24T15:40:33.567Z,450
2017-07-24T15:41:33.564Z,375
2017-07-24T15:42:33.546Z,340
2017-07-24T15:43:33.526Z,320
2017-07-24T15:44:33.533Z,285
2017-07-24T15:45:33.502Z,310
2017-07-24T15:46:33.477Z,220
2017-07-24T15:47:33.172Z,190
2017-07-24T15:48:33.127Z,240
2017-07-24T15:49:33.441Z,235
2017-07-24T15:50:33.095Z,295
2017-07-24T15:51:33.394Z,290
2017-07-24T15:52:33.086Z,365
2017-07-24T15:53:33.056Z,310
2017-07-24T15:54:33.056Z,345
2017-07-24T15:55:33.030Z,325
2017-07-24T15:56:33.018Z,350
2017-07-24T15:57:33.013Z,430
2017-07-24T15:58:33.278Z,450
2017-07-24T15:59:32.979Z,575
2017-07-24T16:00:32.970Z,495
2017-07-24T16:01:33.238Z,380
2017-07-24T16:02:32.934Z,330
2017-07-24T16:03:33.219Z,305
2017-07-24T16:04:33.192Z,505
2017-07-24T16:05:33.192Z,575
2017-07-24T16:06:32.858Z,315
2017-07-24T16:07:33.163Z,320
2017-07-24T16:08:33.347Z,285
2017-07-24T16:09:46.741Z,210
2017-07-24T16:10:32.794Z,215
2017-07-24T16:11:33.083Z,200
2017-07-24T16:12:32.464Z,190
2017-07-24T16:13:32.763Z,170
2017-07-24T16:14:32.737Z,185
2017-07-24T16:15:33.017Z,200
2017-07-24T16:16:33.027Z,175
2017-07-24T16:17:32.715Z,150
2017-07-24T16:18:32.675Z,210
2017-07-24T16:19:32.972Z,185
2017-07-24T16:20:32.937Z,225
2017-07-24T16:21:32.630Z,200
2017-07-24T16:22:32.922Z,220
2017-07-24T16:23:32.582Z,240
2017-07-24T16:24:32.896Z,330
2017-07-24T16:25:32.876Z,210
2017-07-24T16:26:32.531Z,200
2017-07-24T16:27:32.832Z,165
2017-07-24T16:28:32.517Z,245
2017-07-24T16:29:32.191Z,340
2017-07-24T16:30:32.794Z,205
2017-07-24T16:31:32.766Z,235
2017-07-24T16:32:32.776Z,315
2017-07-24T16:33:32.730Z,260
2017-07-24T16:34:32.709Z,210
2017-07-24T16:35:32.691Z,220
2017-07-24T16:36:32.699Z,210
2017-07-24T16:37:32.879Z,205
2017-07-24T16:38:32.656Z,235
2017-07-24T16:39:32.329Z,235
2017-07-24T16:40:32.619Z,280
2017-07-24T16:41:32.614Z,335
2017-07-24T16:42:32.801Z,345
2017-07-24T16:43:46.215Z,275
2017-07-24T16:44:32.543Z,210
2017-07-24T16:45:32.254Z,175
2017-07-24T16:46:32.235Z,170
2017-07-24T16:47:32.505Z,135
2017-07-24T16:48:32.214Z,150
2017-07-24T16:49:32.185Z,135
2017-07-24T16:50:32.465Z,145
2017-07-24T16:51:32.446Z,150
2017-07-24T16:52:32.429Z,140
2017-07-24T16:53:32.498Z,155
2017-07-24T16:54:32.399Z,175
2017-07-24T16:55:32.387Z,210
2017-07-24T16:56:32.386Z,225
2017-07-24T16:57:32.349Z,180
2017-07-24T16:58:32.346Z,160
2017-07-24T16:59:32.338Z,155
2017-07-24T17:00:32.021Z,135
2017-07-24T17:01:32.288Z,135
2017-07-24T17:02:32.006Z,160
2017-07-24T17:03:32.260Z,150
2017-07-24T17:04:32.234Z,110
2017-07-24T17:05:31.918Z,100
2017-07-24T17:06:32.238Z,110
2017-07-24T17:07:32.202Z,110
2017-07-24T17:08:32.175Z,105
2017-07-24T17:09:32.181Z,125
2017-07-24T17:10:32.176Z,150
2017-07-24T17:11:32.133Z,155
2017-07-24T17:12:32.128Z,125
2017-07-24T17:13:32.108Z,150
2017-07-24T17:14:31.778Z,160
2017-07-24T17:15:32.075Z,130
2017-07-24T17:16:31.957Z,100
2017-07-24T17:17:31.931Z,90
2017-07-24T17:18:32.027Z,95
2017-07-24T17:19:46.008Z,105
2017-07-24T17:20:31.998Z,80
2017-07-24T17:21:31.974Z,100
2017-07-24T17:22:31.970Z,85
2017-07-24T17:23:31.947Z,65
2017-07-24T17:24:31.623Z,55
2017-07-24T17:25:31.621Z,50
2017-07-24T17:26:31.603Z,50
2017-07-24T17:27:31.876Z,50
2017-07-24T17:28:31.883Z,60
2017-07-24T17:29:31.855Z,55
2017-07-24T17:30:31.561Z,60
2017-07-24T17:31:31.208Z,50
2017-07-24T17:32:31.199Z,45
2017-07-24T17:33:31.797Z,45
2017-07-24T17:34:31.475Z,45
2017-07-24T17:35:30.844Z,50
2017-07-24T17:36:31.448Z,50
2017-07-24T17:37:31.739Z,45
2017-07-24T17:38:31.103Z,40
2017-07-24T17:39:31.708Z,40
2017-07-24T17:40:31.696Z,35
2017-07-24T17:41:31.665Z,40
2017-07-24T17:42:31.661Z,35
2017-07-24T17:43:31.328Z,35
2017-07-24T17:44:31.622Z,40
2017-07-24T17:45:46.207Z,40
2017-07-24T17:47:25.741Z,40
2017-07-24T17:47:35.546Z,35
2017-07-24T17:48:35.239Z,35
2017-07-24T17:49:35.528Z,40
2017-07-24T17:50:35.209Z,45
2017-07-24T17:51:35.190Z,45
2017-07-24T17:52:35.486Z,40
2017-07-24T17:53:35.666Z,35
2017-07-24T17:54:35.445Z,30
2017-07-24T17:55:35.436Z,25
2017-07-24T17:56:35.423Z,30
2017-07-24T17:57:35.398Z,30
2017-07-24T17:58:35.386Z,30
2017-07-24T17:59:35.355Z,30
2017-07-24T18:00:35.364Z,30
2017-07-24T18:01:35.339Z,25
2017-07-24T18:02:35.325Z,30
2017-07-24T18:03:35.313Z,30
2017-07-24T18:04:35.301Z,30
2017-07-24T18:05:34.997Z,35
2017-07-24T18:06:34.973Z,35
2017-07-24T18:07:34.644Z,35
2017-07-24T18:08:35.440Z,30
2017-07-24T18:09:34.906Z,35
2017-07-24T18:10:35.203Z,35
2017-07-24T18:11:34.887Z,30
2017-07-24T18:12:35.075Z,30
2017-07-24T18:13:35.162Z,25
2017-07-24T18:14:48.743Z,25
2017-07-24T18:15:35.145Z,25
2017-07-24T18:16:34.816Z,25
2017-07-24T18:17:34.804Z,25
2017-07-24T18:18:35.289Z,20
2017-07-24T18:19:34.470Z,20
2017-07-24T18:20:35.042Z,20
2017-07-24T18:21:35.038Z,15
2017-07-24T18:22:35.026Z,15
2017-07-24T18:23:34.701Z,15
2017-07-24T18:24:35.001Z,15
2017-07-24T18:25:34.983Z,10
2017-07-24T18:26:34.957Z,10
2017-07-24T18:27:34.627Z,10
2017-07-24T18:28:34.910Z,10
2017-07-24T18:29:34.929Z,5
2017-07-24T18:30:34.887Z,5
2017-07-24T18:31:34.881Z,5
2017-07-24T18:32:34.890Z,5
2017-07-24T18:33:34.857Z,5
2017-07-24T18:34:34.822Z,5
2017-07-24T18:35:34.818Z,10
2017-07-24T18:36:34.803Z,5
2017-07-24T18:37:34.796Z,5
2017-07-24T18:38:34.772Z,5
2017-07-24T18:39:34.750Z,5
2017-07-24T18:40:34.440Z,5
2017-07-24T18:41:34.729Z,5
2017-07-24T18:42:34.707Z,5
2017-07-24T18:43:34.590Z,5
2017-07-24T18:44:34.685Z,5
2017-07-24T18:45:34.655Z,5
2017-07-24T18:46:34.642Z,5
2017-07-24T18:47:34.836Z,0
2017-07-24T18:48:48.247Z,0
2017-07-24T18:49:34.611Z,0
2017-07-24T18:50:34.279Z,0
2017-07-24T18:51:34.561Z,0
2017-07-24T18:52:34.141Z,0
2017-07-24T18:53:34.529Z,0
2017-07-24T18:54:34.208Z,0
2017-07-24T18:55:34.180Z,0
2017-07-24T18:56:34.680Z,0
2017-07-24T18:57:34.143Z,0
2017-07-24T18:58:34.151Z,0
2017-07-24T18:59:34.424Z,0
2017-07-24T19:00:34.405Z,0
2017-07-24T19:01:34.079Z,0
2017-07-24T19:02:34.377Z,0
2017-07-24T19:03:34.049Z,0
2017-07-24T19:04:34.042Z,0
2017-07-24T19:05:34.021Z,0
2017-07-24T19:06:34.003Z,0
2017-07-24T19:07:34.310Z,0
2017-07-24T19:08:34.286Z,0
2017-07-24T19:09:33.960Z,0
2017-07-24T19:10:34.248Z,0
2017-07-24T19:11:33.919Z,0
2017-07-24T19:12:34.216Z,0
2017-07-24T19:13:34.204Z,0
2017-07-24T19:14:34.168Z,0
2017-07-24T19:15:34.160Z,0
2017-07-24T19:16:33.840Z,0
2017-07-24T19:17:47.726Z,0
2017-07-24T19:18:34.117Z,0
2017-07-24T19:19:34.126Z,0
2017-07-24T19:20:33.780Z,0
2017-07-24T19:21:47.145Z,0
2017-07-24T19:22:34.037Z,0
2017-07-24T19:23:33.729Z,0
2017-07-24T19:24:33.728Z,0
2017-07-24T19:25:47.847Z,0
2017-07-24T19:26:33.698Z,0
2017-07-24T19:27:33.974Z,0
2017-07-24T19:28:33.950Z,0
2017-07-24T19:29:33.627Z,0
2017-07-24T19:30:33.915Z,0
2017-07-24T19:31:33.908Z,0
2017-07-24T19:32:33.285Z,0
2017-07-24T19:33:33.904Z,0
2017-07-24T19:34:33.553Z,0
2017-07-24T19:35:33.846Z,0
2017-07-24T19:36:33.514Z,0
2017-07-24T19:37:33.807Z,0
2017-07-24T19:38:33.797Z,0
2017-07-24T19:39:33.776Z,0
2017-07-24T19:40:33.141Z,0
2017-07-24T19:41:33.445Z,0
2017-07-24T19:42:33.738Z,0
2017-07-24T19:43:33.712Z,0
2017-07-24T19:44:33.678Z,0
2017-07-24T19:45:33.676Z,0
2017-07-24T19:46:33.571Z,0
2017-07-24T19:47:33.636Z,0
2017-07-24T19:48:33.624Z,0
2017-07-24T19:49:33.315Z,0
2017-07-24T19:50:33.606Z,0
2017-07-24T19:51:33.596Z,0
2017-07-24T19:52:33.553Z,0
2017-07-24T19:53:33.558Z,0
2017-07-24T19:54:33.523Z,0
2017-07-24T19:55:33.428Z,0
2017-07-24T19:56:47.149Z,0
2017-07-24T19:57:33.162Z,0
2017-07-24T19:58:33.153Z,0
2017-07-24T19:59:33.123Z,0
2017-07-24T20:00:33.118Z,0